Time;durP1;ratioP1;P1;durP2;ratioP2;P2;SDS_P1;SDS_P2;PMS_P1;PMS_P2;Temp;Humidity;BMP_temperature;BMP_pressure;BME280_temperature;BME280_humidity;BME280_pressure;Samples;Min_cycle;Max_cycle;Signal;HPM_P1;HPM_P2
2023/05/06 00:00:50;;;;;;;8.57;5.38;;;;;;;8.42;99.30;94760.00;5056682;28;20263;-74
2023/05/06 00:03:18;;;;;;;10.80;6.00;;;;;;;8.34;98.85;94761.53;5052058;28;20238;-75
2023/05/06 00:05:46;;;;;;;10.18;5.85;;;;;;;8.32;98.74;94763.78;5057072;28;20616;-75
2023/05/06 00:08:13;;;;;;;9.85;6.00;;;;;;;8.29;99.07;94766.25;5054241;28;20203;-75
2023/05/06 00:10:39;;;;;;;9.73;6.10;;;;;;;8.26;99.17;94761.47;5058267;28;20693;-74
2023/05/06 00:13:07;;;;;;;10.75;5.93;;;;;;;8.28;99.28;94760.06;5061319;28;20210;-74
2023/05/06 00:15:33;;;;;;;9.38;5.47;;;;;;;8.28;98.67;94754.66;5056985;28;20234;-75
2023/05/06 00:18:00;;;;;;;9.65;5.65;;;;;;;8.23;98.42;94756.69;5053860;28;20211;-74
2023/05/06 00:20:27;;;;;;;9.55;5.45;;;;;;;8.29;97.95;94758.94;5058031;28;20235;-75
2023/05/06 00:22:56;;;;;;;10.18;6.03;;;;;;;8.20;96.90;94752.69;5059999;28;20261;-75
2023/05/06 00:25:22;;;;;;;9.88;5.50;;;;;;;8.30;96.68;94757.84;5056883;28;20203;-75
2023/05/06 00:27:49;;;;;;;13.45;5.60;;;;;;;8.10;96.97;94748.34;5053364;28;20245;-75
2023/05/06 00:30:16;;;;;;;9.40;5.15;;;;;;;8.12;98.00;94754.25;5056678;28;20265;-76
2023/05/06 00:32:43;;;;;;;14.02;6.13;;;;;;;8.07;98.17;94758.97;5060224;28;20204;-75
2023/05/06 00:35:09;;;;;;;8.55;5.70;;;;;;;8.13;98.55;94760.44;5057493;28;20244;-75
2023/05/06 00:37:36;;;;;;;8.73;5.78;;;;;;;8.12;98.30;94753.44;5054396;28;20218;-75
2023/05/06 00:40:05;;;;;;;10.15;6.60;;;;;;;8.11;98.48;94755.34;5057107;28;20254;-75
2023/05/06 00:42:33;;;;;;;11.77;6.63;;;;;;;8.10;98.48;94752.97;5047319;28;20286;-76
2023/05/06 00:45:00;;;;;;;9.40;5.90;;;;;;;8.07;98.95;94761.66;5057964;28;20207;-75
2023/05/06 00:47:26;;;;;;;13.60;6.28;;;;;;;8.04;98.68;94756.91;5053744;28;20238;-76
2023/05/06 00:49:54;;;;;;;10.40;5.38;;;;;;;8.02;98.65;94751.81;5056232;28;20264;-75
2023/05/06 00:52:21;;;;;;;11.07;5.38;;;;;;;8.03;98.71;94747.22;5052475;28;20202;-75
2023/05/06 00:54:47;;;;;;;9.85;5.95;;;;;;;8.05;98.48;94745.00;5054943;28;20203;-75
2023/05/06 00:57:16;;;;;;;10.43;5.95;;;;;;;8.11;98.02;94749.16;5052668;28;20218;-75
2023/05/06 00:59:42;;;;;;;13.90;5.63;;;;;;;8.09;98.21;94751.38;5049223;28;20195;-75
2023/05/06 01:02:09;;;;;;;14.13;5.90;;;;;;;8.17;97.95;94746.03;5059947;28;20203;-75
2023/05/06 01:04:36;;;;;;;9.80;5.72;;;;;;;8.13;98.03;94746.94;5042546;28;20278;-75
2023/05/06 01:07:12;;;;;;;10.40;6.38;;;;;;;8.11;98.33;94751.84;5030440;28;20374;-75
2023/05/06 01:09:43;;;;;;;10.02;5.57;;;;;;;8.16;98.12;94751.75;5034003;28;20647;-75
2023/05/06 01:12:17;;;;;;;12.00;6.32;;;;;;;8.07;98.34;94748.19;5046909;28;20635;-75
2023/05/06 01:14:53;;;;;;;11.30;5.60;;;;;;;8.13;98.35;94747.75;5037283;28;20211;-75
2023/05/06 01:17:24;;;;;;;9.00;5.20;;;;;;;8.11;98.29;94739.16;5040233;28;20200;-75
2023/05/06 01:19:53;;;;;;;9.55;5.43;;;;;;;8.13;98.13;94736.16;5044042;28;20209;-75
2023/05/06 01:22:20;;;;;;;12.50;6.40;;;;;;;8.02;98.51;94742.94;5031003;28;20212;-75
2023/05/06 01:24:48;;;;;;;14.05;6.80;;;;;;;7.98;98.67;94739.25;5036120;28;20211;-75
2023/05/06 01:27:15;;;;;;;12.63;6.78;;;;;;;8.07;98.66;94737.38;5038858;28;20718;-75
2023/05/06 01:29:44;;;;;;;13.50;6.70;;;;;;;8.09;97.48;94737.88;5044615;28;20207;-75
2023/05/06 01:32:26;;;;;;;11.50;6.55;;;;;;;7.89;98.84;94735.69;5043631;28;20199;-75
2023/05/06 01:34:59;;;;;;;12.48;6.80;;;;;;;7.91;99.53;94741.59;5018845;28;20200;-75
2023/05/06 01:37:38;;;;;;;11.25;6.32;;;;;;;7.84;99.35;94734.72;5044495;28;20254;-74
2023/05/06 01:40:09;;;;;;;12.43;6.63;;;;;;;7.78;99.61;94740.56;5041413;28;20678;-76
2023/05/06 01:42:39;;;;;;;13.10;6.32;;;;;;;7.59;100.00;94732.63;5037323;28;20211;-76
2023/05/06 01:45:07;;;;;;;11.68;6.22;;;;;;;7.51;100.00;94741.47;5038874;28;20209;-76
2023/05/06 01:47:36;;;;;;;12.63;6.00;;;;;;;7.59;100.00;94738.03;5044301;28;20228;-74
2023/05/06 01:50:04;;;;;;;10.20;6.13;;;;;;;7.58;100.00;94731.03;5043020;28;20256;-76
2023/05/06 01:52:31;;;;;;;13.68;6.78;;;;;;;7.47;100.00;94745.88;5024495;28;20211;-76
2023/05/06 01:54:57;;;;;;;12.05;7.03;;;;;;;7.53;100.00;94741.94;5037018;28;20254;-76
2023/05/06 01:57:26;;;;;;;11.65;6.85;;;;;;;7.56;100.00;94738.63;5043929;28;20204;-76
2023/05/06 01:59:53;;;;;;;11.45;6.38;;;;;;;7.47;100.00;94746.66;5030810;28;20196;-77
2023/05/06 02:02:19;;;;;;;10.95;6.50;;;;;;;7.48;100.00;94750.16;5052545;28;20643;-75
2023/05/06 02:04:46;;;;;;;10.70;6.20;;;;;;;7.45;100.00;94739.97;5056359;28;20579;-75
2023/05/06 02:07:13;;;;;;;15.25;6.85;;;;;;;7.54;100.00;94751.63;5062447;28;20281;-76
2023/05/06 02:09:40;;;;;;;9.95;5.75;;;;;;;7.56;100.00;94749.41;5063693;28;20612;-77
2023/05/06 02:12:06;;;;;;;12.52;6.18;;;;;;;7.59;100.00;94735.34;5057708;28;20207;-77
2023/05/06 02:14:35;;;;;;;17.05;6.88;;;;;;;7.48;100.00;94739.38;5069146;28;20222;-76
2023/05/06 02:17:03;;;;;;;11.55;6.15;;;;;;;7.51;100.00;94740.66;5058585;28;20600;-76
2023/05/06 02:19:30;;;;;;;11.82;6.43;;;;;;;7.42;100.00;94737.88;5056638;28;20294;-76
2023/05/06 02:21:57;;;;;;;15.82;6.82;;;;;;;7.45;100.00;94738.09;5061734;28;20207;-76
2023/05/06 02:24:25;;;;;;;12.98;6.80;;;;;;;7.51;100.00;94737.97;5052079;28;20659;-75
2023/05/06 02:26:51;;;;;;;11.70;6.50;;;;;;;7.41;100.00;94736.28;5060628;28;20234;-74
2023/05/06 02:29:18;;;;;;;12.38;6.07;;;;;;;7.34;100.00;94735.94;5062878;28;20203;-74
2023/05/06 02:31:46;;;;;;;13.10;5.97;;;;;;;7.41;100.00;94736.28;5059031;28;20199;-75
2023/05/06 02:34:13;;;;;;;11.77;6.25;;;;;;;7.43;100.00;94739.47;5055603;28;20196;-75
2023/05/06 02:36:40;;;;;;;16.40;6.15;;;;;;;7.46;100.00;94738.88;5060214;28;20207;-76
2023/05/06 02:39:06;;;;;;;10.75;5.93;;;;;;;7.43;100.00;94739.47;5062876;28;20677;-75
2023/05/06 02:41:33;;;;;;;12.00;6.78;;;;;;;7.51;100.00;94741.47;5059203;28;20214;-75
2023/05/06 02:44:00;;;;;;;10.82;6.18;;;;;;;7.60;100.00;94742.31;5066668;28;20208;-75
2023/05/06 02:46:26;;;;;;;12.15;6.55;;;;;;;7.47;100.00;94732.38;5059206;28;20287;-76
2023/05/06 02:48:55;;;;;;;12.18;6.53;;;;;;;7.46;99.84;94723.50;5055678;28;20202;-76
2023/05/06 02:51:21;;;;;;;11.52;5.97;;;;;;;7.44;99.90;94746.47;5058465;28;20260;-75
2023/05/06 02:53:48;;;;;;;13.05;6.35;;;;;;;7.49;100.00;94743.66;5053478;28;20778;-75
2023/05/06 02:56:15;;;;;;;11.48;6.50;;;;;;;7.45;100.00;94753.44;5057962;28;20303;-75
2023/05/06 02:58:41;;;;;;;11.75;6.35;;;;;;;7.48;99.83;94756.34;5061932;28;20195;-76
2023/05/06 03:01:08;;;;;;;17.38;5.95;;;;;;;7.43;98.75;94755.66;5057873;28;20542;-75
2023/05/06 03:03:35;;;;;;;9.68;5.55;;;;;;;7.40;98.32;94756.25;5062424;28;20232;-75
2023/05/06 03:06:03;;;;;;;10.38;5.90;;;;;;;7.40;98.91;94756.25;5060296;28;20230;-75
2023/05/06 03:08:30;;;;;;;11.75;5.60;;;;;;;7.45;99.73;94754.25;5055602;28;20203;-76
2023/05/06 03:10:57;;;;;;;12.40;6.72;;;;;;;7.53;99.68;94754.63;5057065;28;20211;-76
2023/05/06 03:13:24;;;;;;;11.82;5.63;;;;;;;7.42;99.52;94749.47;5054619;28;20215;-76
2023/05/06 03:15:53;;;;;;;10.43;5.57;;;;;;;7.54;99.90;94751.63;5056563;28;20208;-75
2023/05/06 03:18:20;;;;;;;13.82;5.75;;;;;;;7.62;99.45;94753.59;5062464;28;20214;-76
2023/05/06 03:20:48;;;;;;;10.73;6.07;;;;;;;7.51;99.05;94746.84;5064113;28;20202;-77
2023/05/06 03:23:16;;;;;;;8.63;4.93;;;;;;;7.53;99.14;94752.72;5042941;28;20203;-77
2023/05/06 03:25:43;;;;;;;9.93;5.40;;;;;;;7.56;98.93;94765.59;5055782;28;20257;-76
2023/05/06 03:28:11;;;;;;;11.10;4.72;;;;;;;7.59;98.31;94770.38;5061614;28;20261;-77
2023/05/06 03:30:37;;;;;;;8.90;5.07;;;;;;;7.67;98.38;94766.94;5061691;28;20199;-75
2023/05/06 03:33:04;;;;;;;10.63;5.38;;;;;;;7.70;98.25;94766.34;5056217;28;20203;-75
2023/05/06 03:35:31;;;;;;;11.65;4.95;;;;;;;7.72;98.72;94772.22;5055119;28;20222;-76
2023/05/06 03:37:58;;;;;;;10.23;5.43;;;;;;;7.79;98.45;94775.28;5052878;28;20215;-75
2023/05/06 03:40:26;;;;;;;10.07;5.82;;;;;;;7.84;98.32;94769.78;5056821;28;20199;-76
2023/05/06 03:42:53;;;;;;;7.68;4.85;;;;;;;7.95;98.05;94772.22;5056551;28;20677;-75
2023/05/06 03:45:20;;;;;;;9.32;5.25;;;;;;;8.01;97.83;94765.59;5053536;28;20211;-76
2023/05/06 03:47:46;;;;;;;8.48;5.10;;;;;;;8.19;97.22;94772.72;5056217;28;20284;-75
2023/05/06 03:50:16;;;;;;;10.45;5.60;;;;;;;8.39;96.88;94772.22;5052972;28;20207;-77
2023/05/06 03:52:42;;;;;;;7.22;5.25;;;;;;;8.91;96.58;94767.00;5056700;28;20198;-75
2023/05/06 03:55:10;;;;;;;8.45;5.10;;;;;;;9.14;93.22;94773.94;5041369;28;20195;-75
2023/05/06 03:57:38;;;;;;;7.85;5.55;;;;;;;9.30;91.62;94776.16;5056099;28;20211;-75
2023/05/06 04:00:06;;;;;;;8.55;5.45;;;;;;;9.35;91.30;94776.03;5061661;28;20768;-76
2023/05/06 04:02:34;;;;;;;9.30;4.70;;;;;;;9.47;92.02;94774.28;5057069;28;20308;-75
2023/05/06 04:05:02;;;;;;;8.20;4.95;;;;;;;9.67;91.29;94778.28;5054338;28;20219;-75
2023/05/06 04:07:29;;;;;;;10.95;5.45;;;;;;;9.87;90.92;94783.03;5058430;28;20310;-75
2023/05/06 04:09:56;;;;;;;10.75;5.22;;;;;;;10.35;90.66;94779.38;5061284;28;20210;-75
2023/05/06 04:12:23;;;;;;;7.35;5.03;;;;;;;10.95;89.31;94778.34;5057304;28;20662;-75
2023/05/06 04:14:51;;;;;;;11.27;5.40;;;;;;;10.95;88.55;94778.34;5054300;28;20211;-76
2023/05/06 04:17:18;;;;;;;8.95;5.45;;;;;;;11.48;86.21;94774.25;5058087;28;20261;-76
2023/05/06 04:19:44;;;;;;;12.32;5.38;;;;;;;11.52;84.05;94775.16;5051041;28;20198;-75
2023/05/06 04:22:11;;;;;;;9.48;5.93;;;;;;;11.73;83.10;94771.34;5058279;28;20506;-75
2023/05/06 04:24:38;;;;;;;8.25;5.22;;;;;;;12.15;81.85;94776.00;5061348;28;20689;-75
2023/05/06 04:27:05;;;;;;;10.32;5.75;;;;;;;12.17;84.00;94776.44;5057527;28;20276;-76
2023/05/06 04:29:32;;;;;;;10.32;6.43;;;;;;;12.42;81.26;94780.84;5064340;28;20692;-75
2023/05/06 04:32:01;;;;;;;10.57;5.63;;;;;;;12.24;80.69;94779.41;5057775;28;20195;-75
2023/05/06 04:34:28;;;;;;;10.32;6.40;;;;;;;12.18;81.09;94784.25;5063449;28;20195;-75
2023/05/06 04:36:55;;;;;;;9.10;5.90;;;;;;;12.31;80.50;94785.88;5057881;28;20207;-75
2023/05/06 04:39:22;;;;;;;14.07;6.85;;;;;;;12.35;79.70;94786.03;5053755;28;20649;-76
2023/05/06 04:41:48;;;;;;;10.95;6.78;;;;;;;12.30;80.33;94792.44;5056507;28;20203;-75
2023/05/06 04:44:15;;;;;;;15.35;7.07;;;;;;;12.40;80.35;94793.97;5059925;28;20199;-75
2023/05/06 04:46:42;;;;;;;11.57;6.60;;;;;;;12.84;79.43;94792.38;5058787;28;20203;-75
2023/05/06 04:49:10;;;;;;;12.25;6.50;;;;;;;13.23;79.00;94785.53;5053777;28;20653;-75
2023/05/06 04:51:37;;;;;;;10.45;6.60;;;;;;;14.18;78.17;94790.34;5054891;28;20203;-75
2023/05/06 04:54:04;;;;;;;10.50;6.15;;;;;;;15.10;74.23;94785.78;5047552;28;20211;-75
2023/05/06 04:56:30;;;;;;;11.50;6.32;;;;;;;15.31;72.33;94797.22;5060464;28;20211;-75
2023/05/06 04:58:57;;;;;;;10.10;5.57;;;;;;;15.54;71.43;94794.66;5047244;28;20242;-73
2023/05/06 05:01:24;;;;;;;8.15;5.80;;;;;;;15.73;70.61;94791.22;5060680;28;20199;-75
2023/05/06 05:03:50;;;;;;;9.40;6.30;;;;;;;16.83;68.60;94794.28;5046909;28;20239;-76
2023/05/06 05:06:19;;;;;;;11.65;8.18;;;;;;;19.11;62.28;94782.69;5046676;28;20191;-76
2023/05/06 05:08:45;;;;;;;13.38;7.22;;;;;;;20.63;55.32;94775.88;5043274;28;20227;-73
2023/05/06 05:11:12;;;;;;;9.77;7.57;;;;;;;19.44;55.80;94786.47;5046707;28;20183;-74
2023/05/06 05:13:39;;;;;;;8.50;6.25;;;;;;;19.94;56.00;94784.16;5046292;28;20192;-74
2023/05/06 05:16:06;;;;;;;9.98;7.07;;;;;;;21.88;51.69;94783.13;5047969;28;20659;-73
2023/05/06 05:18:36;;;;;;;9.30;6.93;;;;;;;23.02;47.84;94769.75;5050614;28;20200;-74
2023/05/06 05:21:03;;;;;;;9.02;7.00;;;;;;;21.42;47.90;94783.16;5046390;28;20199;-75
2023/05/06 05:23:31;;;;;;;8.07;6.13;;;;;;;20.54;49.88;94784.47;5045947;28;20296;-74
2023/05/06 05:25:58;;;;;;;7.03;6.30;;;;;;;19.96;52.24;94787.28;5045989;28;20203;-72
2023/05/06 05:28:24;;;;;;;10.63;6.05;;;;;;;19.01;53.52;94799.03;5051535;28;20227;-73
2023/05/06 05:30:51;;;;;;;10.38;6.60;;;;;;;18.18;56.29;94790.22;5046716;28;20222;-74
2023/05/06 05:33:18;;;;;;;7.30;5.93;;;;;;;17.40;58.05;94800.75;5045825;28;20563;-74
2023/05/06 05:35:45;;;;;;;7.78;6.32;;;;;;;16.92;59.50;94797.59;5046433;28;20196;-74
2023/05/06 05:38:13;;;;;;;9.75;6.82;;;;;;;16.60;60.19;94802.44;5049781;28;20191;-75
2023/05/06 05:40:41;;;;;;;7.63;6.60;;;;;;;16.70;59.92;94806.56;5049359;28;20302;-75
2023/05/06 05:43:08;;;;;;;8.75;6.55;;;;;;;16.20;62.42;94808.28;5046243;28;20207;-76
2023/05/06 05:45:34;;;;;;;9.05;7.15;;;;;;;16.14;62.57;94790.56;5046381;28;20206;-74
2023/05/06 05:48:01;;;;;;;9.82;6.95;;;;;;;15.84;63.74;94803.19;5045348;28;20242;-75
2023/05/06 05:50:28;;;;;;;10.43;7.07;;;;;;;15.75;64.11;94797.13;5045531;28;20276;-75
2023/05/06 05:52:55;;;;;;;12.23;8.50;;;;;;;15.48;64.86;94802.31;5045443;28;21011;-75
2023/05/06 05:55:22;;;;;;;10.52;7.43;;;;;;;15.18;66.35;94803.91;5048616;28;20203;-75
2023/05/06 05:57:50;;;;;;;8.52;6.82;;;;;;;14.67;67.82;94811.97;5049434;28;20196;-74
2023/05/06 06:00:18;;;;;;;10.77;7.05;;;;;;;14.65;68.62;94808.78;5055047;28;20199;-74
2023/05/06 06:02:44;;;;;;;9.25;7.55;;;;;;;14.48;68.19;94825.47;5050575;28;20227;-75
2023/05/06 06:05:11;;;;;;;9.15;7.18;;;;;;;14.29;68.68;94817.09;5048019;28;20309;-74
2023/05/06 06:07:38;;;;;;;10.02;6.80;;;;;;;14.18;69.80;94820.31;5058945;28;20714;-74
2023/05/06 06:10:06;;;;;;;9.25;7.35;;;;;;;14.07;70.52;94826.59;5063310;28;20230;-76
2023/05/06 06:12:33;;;;;;;8.98;7.13;;;;;;;14.21;70.44;94819.59;5061096;28;20205;-75
2023/05/06 06:15:01;;;;;;;11.05;7.97;;;;;;;14.32;70.35;94817.22;5056387;28;20199;-75
2023/05/06 06:17:28;;;;;;;13.02;7.15;;;;;;;14.51;69.50;94830.22;5058162;28;20204;-75
2023/05/06 06:19:56;;;;;;;12.07;8.02;;;;;;;14.26;69.91;94828.69;5063305;28;20285;-76
2023/05/06 06:22:23;;;;;;;8.60;7.32;;;;;;;14.02;70.54;94824.91;5062422;28;20239;-75
2023/05/06 06:24:50;;;;;;;13.88;7.78;;;;;;;14.21;70.73;94830.50;5056172;28;20542;-74
2023/05/06 06:27:16;;;;;;;11.10;8.52;;;;;;;14.38;71.05;94823.19;5057003;28;20212;-75
2023/05/06 06:29:43;;;;;;;11.32;8.77;;;;;;;14.37;70.98;94827.06;5063137;28;20624;-74
2023/05/06 06:32:11;;;;;;;12.32;8.68;;;;;;;13.99;71.41;94820.13;5049546;28;20204;-75
2023/05/06 06:34:38;;;;;;;14.88;8.57;;;;;;;13.75;72.76;94826.44;5062742;28;20225;-75
2023/05/06 06:37:05;;;;;;;13.05;8.15;;;;;;;13.52;73.39;94826.13;5062077;28;20214;-75
2023/05/06 06:39:32;;;;;;;11.88;8.48;;;;;;;13.84;72.76;94821.66;5055368;28;20352;-76
2023/05/06 06:41:58;;;;;;;14.38;6.40;;;;;;;13.59;73.37;94827.47;5056509;28;20204;-73
2023/05/06 06:44:25;;;;;;;13.90;8.20;;;;;;;13.57;73.65;94829.72;5062622;28;20234;-76
2023/05/06 06:46:52;;;;;;;15.52;8.43;;;;;;;13.76;73.25;94830.75;5063198;28;20767;-74
2023/05/06 06:49:20;;;;;;;12.27;6.78;;;;;;;13.96;72.64;94834.44;5039692;28;20269;-74
2023/05/06 06:51:47;;;;;;;14.05;6.75;;;;;;;13.79;72.11;94838.22;5039550;28;20250;-76
2023/05/06 06:54:14;;;;;;;9.98;6.20;;;;;;;13.71;72.33;94843.78;5057601;28;20273;-76
2023/05/06 06:56:40;;;;;;;12.57;6.05;;;;;;;13.52;73.53;94839.72;5054966;28;20724;-75
2023/05/06 06:59:08;;;;;;;11.00;6.28;;;;;;;13.86;72.51;94838.44;5062744;28;20202;-76
2023/05/06 07:01:34;;;;;;;12.13;6.68;;;;;;;14.12;71.74;94840.75;5055175;28;20249;-75
2023/05/06 07:04:01;;;;;;;10.23;6.95;;;;;;;14.80;70.22;94845.41;5059146;28;20760;-76
2023/05/06 07:06:29;;;;;;;10.85;7.47;;;;;;;14.98;68.90;94838.50;5060027;28;20249;-76
2023/05/06 07:08:56;;;;;;;11.35;6.60;;;;;;;15.08;68.77;94842.66;5056162;28;20235;-75
2023/05/06 07:11:23;;;;;;;12.63;7.13;;;;;;;15.52;67.71;94844.16;5054047;28;20941;-76
2023/05/06 07:13:49;;;;;;;14.18;8.23;;;;;;;15.84;66.92;94847.69;5058792;28;20775;-75
2023/05/06 07:16:16;;;;;;;12.65;7.35;;;;;;;16.07;64.99;94845.06;5060787;28;20649;-76
2023/05/06 07:18:44;;;;;;;11.93;7.53;;;;;;;16.95;63.40;94840.66;5056270;28;20256;-74
2023/05/06 07:21:10;;;;;;;15.13;7.57;;;;;;;17.02;61.79;94835.31;5065099;28;20199;-74
2023/05/06 07:23:38;;;;;;;13.85;8.60;;;;;;;17.63;60.88;94837.16;5047533;28;20203;-74
2023/05/06 07:26:05;;;;;;;13.82;9.05;;;;;;;18.14;59.57;94838.72;5060443;28;20569;-76
2023/05/06 07:28:32;;;;;;;13.48;8.52;;;;;;;18.19;59.52;94841.91;5057303;28;20686;-76
2023/05/06 07:30:59;;;;;;;11.00;6.47;;;;;;;18.28;58.19;94838.91;5054617;28;20272;-73
2023/05/06 07:33:25;;;;;;;8.25;6.70;;;;;;;18.65;55.43;94836.28;5057344;28;20199;-75
2023/05/06 07:35:53;;;;;;;11.32;6.60;;;;;;;18.31;56.33;94838.94;5060969;28;20254;-75
2023/05/06 07:38:21;;;;;;;9.80;6.60;;;;;;;18.38;56.72;94839.06;5057951;28;20234;-75
2023/05/06 07:40:49;;;;;;;10.25;6.45;;;;;;;18.87;56.15;94818.09;5054055;28;20256;-75
2023/05/06 07:43:16;;;;;;;10.00;5.85;;;;;;;19.75;53.71;94827.22;5056158;28;20333;-74
2023/05/06 07:45:43;;;;;;;8.27;6.00;;;;;;;20.46;51.57;94815.91;5051665;28;20218;-75
2023/05/06 07:48:10;;;;;;;7.18;5.50;;;;;;;21.34;49.28;94814.63;5056672;28;20223;-75
2023/05/06 07:50:36;;;;;;;6.82;5.82;;;;;;;21.28;49.95;94812.25;5054511;28;20637;-74
2023/05/06 07:53:03;;;;;;;6.35;5.50;;;;;;;21.74;47.89;94811.50;5043867;28;20691;-75
2023/05/06 07:55:30;;;;;;;7.72;5.88;;;;;;;21.41;48.24;94814.63;5045053;28;20195;-76
2023/05/06 07:57:58;;;;;;;7.57;5.93;;;;;;;20.29;50.83;94827.56;5033406;28;20270;-78
2023/05/06 08:00:25;;;;;;;8.43;6.13;;;;;;;20.84;51.25;94820.78;5035250;28;20204;-77
2023/05/06 08:02:52;;;;;;;9.68;5.90;;;;;;;20.39;50.93;94827.66;5044776;28;20304;-78
2023/05/06 08:05:19;;;;;;;6.53;5.03;;;;;;;20.94;50.10;94816.47;5040944;28;20214;-77
2023/05/06 08:07:49;;;;;;;7.82;5.72;;;;;;;20.19;50.74;94818.09;5041989;28;20630;-77
2023/05/06 08:10:16;;;;;;;9.15;5.85;;;;;;;19.51;51.86;94834.09;5041176;28;20662;-79
2023/05/06 08:12:43;;;;;;;8.82;5.63;;;;;;;18.59;53.78;94830.31;5046050;28;20192;-80
2023/05/06 08:15:11;;;;;;;7.88;5.97;;;;;;;19.14;54.43;94825.84;5043719;28;20215;-78
2023/05/06 08:17:38;;;;;;;9.45;6.20;;;;;;;18.81;54.27;94825.88;5042180;28;20756;-75
2023/05/06 08:20:06;;;;;;;9.27;6.22;;;;;;;18.95;54.70;94834.28;5049791;28;20586;-73
2023/05/06 08:22:33;;;;;;;10.32;6.35;;;;;;;19.34;53.47;94833.88;5044903;28;20200;-74
2023/05/06 08:25:00;;;;;;;9.23;6.13;;;;;;;19.77;52.59;94827.63;5045319;28;20199;-75
2023/05/06 08:27:27;;;;;;;9.90;6.07;;;;;;;20.94;50.02;94816.47;5045424;28;20619;-75
2023/05/06 08:29:54;;;;;;;9.00;5.57;;;;;;;21.75;47.75;94813.06;5044076;28;20254;-75
2023/05/06 08:32:22;;;;;;;8.88;6.60;;;;;;;21.29;48.68;94813.06;5042189;28;20195;-75
2023/05/06 08:34:49;;;;;;;8.43;6.72;;;;;;;20.64;49.90;94816.00;5047279;28;20277;-75
2023/05/06 08:37:15;;;;;;;8.85;6.50;;;;;;;19.82;51.37;94826.47;5041798;28;20208;-75
2023/05/06 08:39:44;;;;;;;10.25;5.70;;;;;;;18.96;53.79;94822.16;5047726;28;20204;-73
2023/05/06 08:42:11;;;;;;;9.13;5.90;;;;;;;19.92;52.54;94825.78;5038966;28;20273;-76
2023/05/06 08:44:38;;;;;;;8.07;5.53;;;;;;;19.88;51.67;94831.25;5044619;28;20257;-75
2023/05/06 08:47:05;;;;;;;8.38;6.38;;;;;;;20.09;51.75;94835.31;5046085;28;20253;-75
2023/05/06 08:49:33;;;;;;;9.65;6.32;;;;;;;19.51;52.32;94838.78;5045838;28;20235;-74
2023/05/06 08:52:04;;;;;;;9.10;6.10;;;;;;;19.20;52.46;94839.25;5041417;28;20203;-75
2023/05/06 08:54:34;;;;;;;10.07;6.85;;;;;;;19.08;52.81;94829.31;5045515;28;20196;-76
2023/05/06 08:57:04;;;;;;;8.73;5.90;;;;;;;19.74;52.34;94824.84;5047859;28;20280;-75
2023/05/06 08:59:32;;;;;;;7.75;6.50;;;;;;;19.59;51.91;94823.16;5042667;28;20203;-76
2023/05/06 09:02:00;;;;;;;8.43;5.97;;;;;;;20.36;50.85;94817.44;5043852;28;20207;-76
2023/05/06 09:04:27;;;;;;;8.82;5.28;;;;;;;20.77;48.62;94820.75;5040969;28;20277;-75
2023/05/06 09:06:56;;;;;;;11.98;6.18;;;;;;;19.63;51.07;94823.97;5039879;28;20204;-74
2023/05/06 09:09:22;;;;;;;8.57;6.00;;;;;;;18.66;53.75;94826.88;5042661;28;20223;-74
2023/05/06 09:11:52;;;;;;;8.57;6.13;;;;;;;19.32;52.64;94811.50;5043439;28;20238;-74
2023/05/06 09:14:21;;;;;;;11.27;6.00;;;;;;;19.71;51.32;94804.41;5041876;28;20227;-74
2023/05/06 09:16:51;;;;;;;6.65;5.60;;;;;;;20.20;50.03;94809.44;5039761;28;20667;-74
2023/05/06 09:19:19;;;;;;;12.43;5.35;;;;;;;20.93;48.32;94792.84;5042203;28;20218;-74
2023/05/06 09:21:48;;;;;;;6.70;5.60;;;;;;;20.83;49.29;94801.88;5044972;28;20710;-74
2023/05/06 09:24:17;;;;;;;6.70;5.50;;;;;;;20.51;49.88;94797.03;5045419;28;20203;-74
2023/05/06 09:26:46;;;;;;;5.80;5.20;;;;;;;21.41;48.96;94787.06;5044261;28;20209;-74
2023/05/06 09:29:13;;;;;;;7.00;5.00;;;;;;;20.94;47.49;94788.94;5042156;28;20216;-75
2023/05/06 09:31:44;;;;;;;10.45;4.80;;;;;;;20.10;50.04;94795.63;5053005;28;20649;-74
2023/05/06 09:34:12;;;;;;;8.57;4.60;;;;;;;21.26;48.03;94791.78;5045771;28;20254;-75
2023/05/06 09:36:39;;;;;;;6.93;4.97;;;;;;;21.24;47.10;94783.91;5043104;28;20860;-75
2023/05/06 09:39:07;;;;;;;7.45;5.32;;;;;;;21.51;46.75;94783.53;5046891;28;20215;-75
2023/05/06 09:41:35;;;;;;;6.38;5.03;;;;;;;20.77;48.14;94781.44;5050520;28;20273;-75
2023/05/06 09:44:02;;;;;;;10.52;5.38;;;;;;;20.96;48.84;94772.81;5049218;28;20203;-74
2023/05/06 09:46:30;;;;;;;6.97;5.75;;;;;;;20.54;50.80;94774.25;5058727;28;20914;-75
2023/05/06 09:48:57;;;;;;;9.38;5.35;;;;;;;21.09;48.52;94782.28;5052111;28;20277;-74
2023/05/06 09:51:26;;;;;;;6.22;4.90;;;;;;;21.02;47.30;94787.00;5047495;28;20205;-74
2023/05/06 09:53:54;;;;;;;5.50;4.65;;;;;;;21.10;47.31;94772.84;5053954;28;20203;-74
2023/05/06 09:56:22;;;;;;;5.32;4.57;;;;;;;21.78;47.89;94773.69;5056804;28;20287;-75
2023/05/06 09:58:52;;;;;;;6.75;5.10;;;;;;;21.38;46.27;94776.84;5045826;28;20243;-74
2023/05/06 10:01:19;;;;;;;6.53;4.88;;;;;;;21.24;47.73;94766.59;5057550;28;20202;-74
2023/05/06 10:03:46;;;;;;;10.88;5.50;;;;;;;21.14;48.60;94762.63;5047956;28;20239;-74
2023/05/06 10:06:14;;;;;;;13.05;6.05;;;;;;;21.01;48.34;94769.69;5052430;28;20200;-74
2023/05/06 10:08:44;;;;;;;6.88;5.13;;;;;;;20.35;49.31;94768.25;5048466;28;20244;-73
2023/05/06 10:11:13;;;;;;;8.45;5.38;;;;;;;19.80;50.74;94774.63;5056042;28;20204;-73
2023/05/06 10:13:41;;;;;;;18.73;13.50;;;;;;;19.77;51.55;94780.88;5052548;28;20206;-73
2023/05/06 10:16:11;;;;;;;10.20;7.35;;;;;;;20.17;50.36;94771.69;5057090;28;20307;-73
2023/05/06 10:18:38;;;;;;;7.72;4.63;;;;;;;19.85;50.23;94771.50;5065367;28;20207;-74
2023/05/06 10:21:09;;;;;;;6.05;4.80;;;;;;;19.56;51.56;94774.44;5067127;28;20203;-74
2023/05/06 10:23:43;;;;;;;5.57;4.28;;;;;;;19.62;51.96;94768.22;5044223;28;20258;-75
2023/05/06 10:26:12;;;;;;;6.65;5.28;;;;;;;19.65;52.20;94767.47;5062037;28;20209;-74
2023/05/06 10:28:40;;;;;;;9.77;5.40;;;;;;;19.99;50.56;94762.56;5068069;28;20573;-75
2023/05/06 10:31:12;;;;;;;7.65;4.70;;;;;;;20.13;49.93;94764.59;5055479;28;20565;-75
2023/05/06 10:33:40;;;;;;;9.25;5.32;;;;;;;20.84;49.70;94760.19;5053326;28;20712;-74
2023/05/06 10:36:15;;;;;;;5.97;4.07;;;;;;;21.37;47.58;94753.22;5049935;28;20208;-74
2023/05/06 10:38:44;;;;;;;7.85;4.10;;;;;;;21.19;47.45;94753.97;5049954;28;20856;-76
2023/05/06 10:41:13;;;;;;;4.45;3.70;;;;;;;20.81;46.57;94757.41;5058552;28;20260;-74
2023/05/06 10:43:41;;;;;;;5.72;3.90;;;;;;;20.81;46.19;94749.94;5043612;28;20206;-74
2023/05/06 10:46:09;;;;;;;3.88;3.50;;;;;;;20.29;46.59;94758.78;5048445;28;20677;-74
2023/05/06 10:48:39;;;;;;;4.68;3.25;;;;;;;19.99;47.32;94753.50;5054610;28;20196;-74
2023/05/06 10:51:26;;;;;;;4.95;3.50;;;;;;;19.53;47.89;94770.50;5038105;28;20606;-77
2023/05/06 10:53:57;;;;;;;5.30;3.80;;;;;;;19.74;46.92;94762.41;5053623;28;20347;-73
2023/05/06 10:56:24;;;;;;;6.30;3.45;;;;;;;20.24;46.62;94754.44;5056514;28;20208;-74
2023/05/06 10:58:51;;;;;;;4.43;3.05;;;;;;;20.36;46.73;94756.91;5062585;28;20704;-73
2023/05/06 11:01:21;;;;;;;5.53;3.38;;;;;;;19.89;46.87;94760.53;5056834;28;20663;-74
2023/05/06 11:03:51;;;;;;;6.82;3.45;;;;;;;20.19;46.50;94746.56;5062153;28;20279;-75
2023/05/06 11:06:35;;;;;;;4.45;3.10;;;;;;;20.63;46.52;94753.84;5062467;28;20203;-73
2023/05/06 11:09:03;;;;;;;4.00;3.08;;;;;;;20.94;43.11;94748.41;5047191;28;20230;-72
2023/05/06 11:11:50;;;;;;;6.95;3.00;;;;;;;21.13;42.42;94736.25;5055208;28;20235;-74
2023/05/06 11:14:27;;;;;;;4.40;3.28;;;;;;;22.25;42.50;94735.78;5055069;28;20290;-73
2023/05/06 11:16:56;;;;;;;3.92;3.08;;;;;;;21.84;42.50;94750.03;5043399;28;20207;-74
2023/05/06 11:19:26;;;;;;;4.22;3.10;;;;;;;21.68;42.54;94749.66;5055046;28;20298;-75
2023/05/06 11:21:54;;;;;;;3.88;2.85;;;;;;;21.26;42.30;94742.97;5060306;28;20196;-74
2023/05/06 11:24:26;;;;;;;5.45;3.17;;;;;;;21.71;41.96;94748.88;5049449;28;20234;-75
2023/05/06 11:26:53;;;;;;;4.13;3.08;;;;;;;21.53;41.16;94746.13;5067983;28;20299;-74
2023/05/06 11:29:20;;;;;;;3.78;3.03;;;;;;;20.79;41.82;94751.50;5054176;28;20227;-76
2023/05/06 11:31:48;;;;;;;5.00;3.10;;;;;;;20.30;44.28;94736.38;5068052;28;20223;-75
2023/05/06 11:34:21;;;;;;;3.42;3.00;;;;;;;19.85;45.53;94776.22;5053997;28;20210;-75